Sunday, September 23, 2018, 1:17 AM EDT
Back to Local

KUNV, State College, University Park Airport

Location: State College, PA, United States Lat: 40.85
Local Time: 1:17 AM EDT ( 5:17 GMT) Lon: -77.85
Time Zone: US/Eastern Elev: 1240 ft

Show me the last for .
Show Decoded

2018-09-23 00:55 METAR KUNV 230455Z AUTO 00000KT 10SM SCT100 SCT120 12/11 A3023 RMK AO2 T01150105
                 =
2018-09-23 00:35 METAR KUNV 230435Z AUTO 00000KT 10SM CLR 12/10 A3025 RMK AO2 T01180102 =
2018-09-23 00:15 METAR KUNV 230415Z AUTO 00000KT 10SM CLR 12/10 A3025 RMK AO2 T01160102 =
2018-09-22 23:55 METAR KUNV 230355Z AUTO 00000KT 10SM CLR 12/10 A3024 RMK AO2 T01180104 402100115
                 =
2018-09-22 23:35 METAR KUNV 230335Z AUTO 00000KT 10SM CLR 12/11 A3025 RMK AO2 T01150106 =
2018-09-22 23:15 METAR KUNV 230315Z AUTO 35003KT 10SM CLR 12/10 A3024 RMK AO2 T01180103 =
2018-09-22 22:55 METAR KUNV 230255Z AUTO 00000KT 10SM CLR 12/10 A3025 RMK AO2 T01170101 =
2018-09-22 22:35 METAR KUNV 230235Z AUTO 00000KT 10SM CLR 12/10 A3023 RMK AO2 T01160100 =
2018-09-22 22:15 METAR KUNV 230215Z AUTO 00000KT 10SM CLR 12/10 A3024 RMK AO2 T01220102 =
2018-09-22 21:53 METAR KUNV 230153Z 00000KT 10SM SKC 11/10 A3024 =
2018-09-22 20:53 METAR KUNV 230053Z 06006KT 10SM SKC 12/10 A3022 =
2018-09-22 19:53 METAR KUNV 222353Z 05004KT 10SM SKC 13/10 A3023 =
2018-09-22 18:53 METAR KUNV 222253Z 07004KT 10SM SKC 14/10 A3023 =
2018-09-22 17:53 METAR KUNV 222153Z 07003KT 10SM SCT040 0VC080 14/10 A3023 =
2018-09-22 16:53 METAR KUNV 222053Z 06005KT 10SM BKN080 15/10 A3022 =
2018-09-22 15:53 METAR KUNV 221953Z 03008KT 10SM SCT080 17/10 A3023 =
2018-09-22 14:53 METAR KUNV 221853Z 05007KT 10SM SCT032 16/10 A3023 =
2018-09-22 13:53 METAR KUNV 221753Z 35006KT 10SM SCT032 BKN050 17/10 A3023 =
2018-09-22 12:53 METAR KUNV 221653Z 35006KT 10SM SCT070 17/10 A3024 =
2018-09-22 11:53 METAR KUNV 221553Z 02008KT 10SM SCT032 SCT050 17/09 A3023 =
2018-09-22 10:53 METAR KUNV 221453Z 34003KT 10SM SCT028 SCT045 17/10 A3024 =
2018-09-22 09:53 METAR KUNV 221353Z 01007KT 10SM SCT026 SCT060 16/11 A3021 =
2018-09-22 08:53 METAR KUNV 221253Z 01006KT 10SM SCT026 SCT060 16/12 A3020 =
2018-09-22 07:53 METAR KUNV 221153Z 00000KT 10SM SCT026 SCT032 SCT060 16/12 A3018 =
2018-09-22 06:53 METAR KUNV 221053Z 00000KT 10SM SCT030 SCT075 16/11 A3015 =
2018-09-22 05:53 METAR KUNV 220953Z COR 00000KT 10SM SCT030 SCT075 16/12 A3013 =
2018-09-22 05:35 METAR KUNV 220935Z AUTO 34004KT 10SM SCT090 16/12 A3013 RMK AO2 T01630120 =
2018-09-22 05:15 METAR KUNV 220915Z AUTO 36004KT 10SM CLR 17/13 A3012 RMK AO2 T01650126 =
2018-09-22 04:55 METAR KUNV 220855Z AUTO 00000KT 10SM CLR 17/13 A3011 RMK AO2 T01700127 =
2018-09-22 04:35 METAR KUNV 220835Z AUTO 32003KT 10SM SCT100 17/13 A3010 RMK AO2 T01730126 =
2018-09-22 04:15 METAR KUNV 220815Z AUTO 32006KT 10SM SCT100 18/13 A3010 RMK AO2 T01760129 =
2018-09-22 03:55 METAR KUNV 220755Z AUTO 31003KT 10SM SCT023 SCT031 SCT075 18/14 A3009 RMK AO2
                 T01840135 =
2018-09-22 03:35 METAR KUNV 220735Z AUTO 30007KT 10SM SCT023 SCT032 19/16 A3008 RMK AO2 T01930157
                 =
2018-09-22 03:15 METAR KUNV 220715Z AUTO 32003KT 10SM CLR 20/16 A3007 RMK AO2 T01980162 =
2018-09-22 02:55 METAR KUNV 220655Z AUTO 31009G15KT 280V340 10SM CLR 20/16 A3006 RMK AO2
                 T02030161 =
2018-09-22 02:35 METAR KUNV 220635Z AUTO 31007G15KT 10SM SCT050 21/17 A3006 RMK AO2 T02100172 =
2018-09-22 02:15 METAR KUNV 220615Z AUTO 29008KT 260V320 10SM SCT037 21/18 A3004 RMK AO2
                 T02070183 =
2018-09-22 01:55 METAR KUNV 220555Z AUTO 23005KT 10SM SCT018 SCT024 SCT029 20/19 A3003 RMK AO2
                 60004 T01970191 10228 20195 =
2018-09-22 01:35 METAR KUNV 220535Z AUTO 23005KT 10SM SCT022 SCT029 20/19 A3003 RMK AO2 T01950190
                 =

Support USWX by starting your Amazon purchase here.